createdAt,value
2023-01-29T00:00:34.723Z,83.20
2023-01-29T00:03:20.245Z,83.30
2023-01-29T00:06:07.349Z,83.30
2023-01-29T00:08:52.437Z,83.50
2023-01-29T00:11:37.934Z,83.50
2023-01-29T00:14:23.576Z,83.60
2023-01-29T00:17:10.274Z,83.50
2023-01-29T00:19:55.914Z,83.60
2023-01-29T00:22:41.600Z,83.60
2023-01-29T00:25:26.927Z,84.60
2023-01-29T00:28:12.989Z,83.90
2023-01-29T00:30:58.169Z,84.00
2023-01-29T00:33:43.929Z,84.10
2023-01-29T00:36:29.452Z,84.20
2023-01-29T00:39:14.579Z,84.20
2023-01-29T00:42:18.522Z,84.40
2023-01-29T00:45:08.214Z,84.20
2023-01-29T00:47:56.405Z,84.20
2023-01-29T00:50:41.834Z,84.20
2023-01-29T00:53:28.029Z,84.30
2023-01-29T00:56:13.276Z,84.60
2023-01-29T00:59:05.196Z,84.50
2023-01-29T01:02:09.736Z,84.50
2023-01-29T01:04:56.961Z,84.50
2023-01-29T01:07:42.297Z,84.50
2023-01-29T01:10:30.895Z,84.60
2023-01-29T01:13:19.553Z,84.60
2023-01-29T01:16:13.586Z,84.60
2023-01-29T01:18:59.335Z,84.70
2023-01-29T01:21:47.081Z,84.80
2023-01-29T01:24:32.640Z,84.70
2023-01-29T01:27:19.556Z,84.70
2023-01-29T01:30:06.194Z,84.70
2023-01-29T01:32:54.502Z,84.70
2023-01-29T01:35:40.916Z,84.60
2023-01-29T01:38:26.527Z,84.70
2023-01-29T01:41:16.427Z,84.60
2023-01-29T01:44:03.916Z,84.50
2023-01-29T01:46:50.243Z,84.60
2023-01-29T01:49:36.031Z,84.70
2023-01-29T01:52:22.395Z,84.80
2023-01-29T01:55:10.474Z,84.80
2023-01-29T01:58:18.013Z,84.90
2023-01-29T02:01:07.215Z,84.70
2023-01-29T02:04:25.298Z,84.80
2023-01-29T02:07:33.850Z,84.70
2023-01-29T02:10:20.456Z,84.50
2023-01-29T02:13:07.506Z,84.50
2023-01-29T02:15:56.367Z,85.30
2023-01-29T02:18:45.161Z,84.50
2023-01-29T02:21:41.525Z,84.40
2023-01-29T02:24:44.240Z,84.40
2023-01-29T02:27:48.474Z,84.20
2023-01-29T02:30:57.145Z,84.20
2023-01-29T02:34:07.588Z,84.20
2023-01-29T02:37:00.554Z,84.20
2023-01-29T02:40:04.624Z,84.30
2023-01-29T02:43:08.670Z,84.30
2023-01-29T02:46:02.890Z,84.40
2023-01-29T02:48:57.876Z,84.50
2023-01-29T02:51:59.554Z,84.60
2023-01-29T02:55:13.191Z,84.70
2023-01-29T02:58:12.132Z,84.80
2023-01-29T03:01:05.380Z,84.90
2023-01-29T03:04:02.539Z,84.60
2023-01-29T03:07:10.099Z,84.60
2023-01-29T03:09:58.008Z,84.90
2023-01-29T03:12:45.832Z,84.80
2023-01-29T03:15:42.677Z,84.60
2023-01-29T03:18:46.158Z,84.60
2023-01-29T03:21:59.679Z,84.50
2023-01-29T03:25:15.573Z,84.50
2023-01-29T03:28:24.747Z,84.60
2023-01-29T03:31:32.500Z,84.90
2023-01-29T03:34:38.884Z,84.80
2023-01-29T03:37:42.103Z,84.90
2023-01-29T03:40:34.480Z,85.20
2023-01-29T03:43:35.871Z,85.30
2023-01-29T03:46:30.145Z,85.40
2023-01-29T03:49:22.372Z,85.60
2023-01-29T03:52:43.752Z,85.80
2023-01-29T03:55:41.521Z,85.90
2023-01-29T03:58:53.997Z,85.90
2023-01-29T04:01:54.796Z,86.10
2023-01-29T04:04:43.636Z,86.00
2023-01-29T04:07:33.310Z,86.20
2023-01-29T04:10:26.913Z,86.20
2023-01-29T04:13:15.065Z,86.50
2023-01-29T04:16:08.841Z,86.50
2023-01-29T04:19:09.548Z,86.50
2023-01-29T04:22:07.337Z,86.60
2023-01-29T04:25:02.335Z,86.50
2023-01-29T04:28:01.624Z,86.50
2023-01-29T04:31:06.137Z,86.50
2023-01-29T04:34:26.403Z,86.70
2023-01-29T04:37:19.156Z,86.30
2023-01-29T04:40:15.982Z,86.40
2023-01-29T04:43:26.620Z,86.30
2023-01-29T04:46:24.327Z,86.30
2023-01-29T04:49:42.983Z,86.30
2023-01-29T04:52:39.988Z,86.20
2023-01-29T04:55:48.650Z,86.20
2023-01-29T04:58:44.521Z,86.20
2023-01-29T05:01:33.491Z,86.20
2023-01-29T05:04:21.368Z,85.80
2023-01-29T05:07:11.898Z,85.80
2023-01-29T05:10:03.969Z,85.70
2023-01-29T05:12:58.151Z,85.70
2023-01-29T05:16:00.452Z,85.80
2023-01-29T05:18:48.943Z,85.90
2023-01-29T05:21:34.496Z,85.80
2023-01-29T05:24:22.802Z,85.90
2023-01-29T05:27:39.923Z,86.00
2023-01-29T05:30:25.274Z,86.00
2023-01-29T05:33:19.667Z,85.90
2023-01-29T05:36:06.937Z,85.80
2023-01-29T05:38:53.740Z,85.70
2023-01-29T05:41:39.616Z,85.70
2023-01-29T05:44:27.705Z,85.70
2023-01-29T05:47:19.894Z,85.80
2023-01-29T05:50:06.409Z,85.50
2023-01-29T05:53:00.014Z,85.30
2023-01-29T05:55:48.603Z,84.90
2023-01-29T05:58:34.768Z,84.90
2023-01-29T06:01:29.144Z,84.80
2023-01-29T06:04:14.604Z,84.50
2023-01-29T06:07:01.377Z,84.40
2023-01-29T06:09:46.483Z,84.30
2023-01-29T06:12:32.528Z,84.20
2023-01-29T06:15:27.471Z,84.50
2023-01-29T06:18:13.146Z,84.60
2023-01-29T06:21:03.375Z,84.50
2023-01-29T06:23:48.625Z,84.50
2023-01-29T06:26:34.481Z,84.50
2023-01-29T06:29:22.362Z,84.90
2023-01-29T06:32:07.803Z,85.00
2023-01-29T06:34:53.274Z,85.00
2023-01-29T06:37:38.490Z,85.10
2023-01-29T06:40:26.612Z,85.10
2023-01-29T06:43:11.864Z,85.00
2023-01-29T06:45:58.093Z,84.90
2023-01-29T06:48:43.547Z,85.30
2023-01-29T06:51:28.812Z,85.30
2023-01-29T06:54:14.317Z,85.40
2023-01-29T06:56:59.931Z,85.40
2023-01-29T06:59:48.247Z,85.20
2023-01-29T07:02:33.492Z,85.40
2023-01-29T07:05:19.073Z,85.10
2023-01-29T07:08:08.907Z,85.10
2023-01-29T07:11:00.099Z,84.90
2023-01-29T07:13:45.424Z,85.00
2023-01-29T07:16:31.287Z,84.80
2023-01-29T07:19:17.125Z,84.70
2023-01-29T07:22:04.005Z,84.70
2023-01-29T07:24:49.772Z,84.70
2023-01-29T07:27:36.138Z,84.40
2023-01-29T07:30:21.747Z,84.50
2023-01-29T07:33:11.298Z,84.60
2023-01-29T07:35:56.651Z,84.60
2023-01-29T07:38:42.168Z,84.50
2023-01-29T07:41:27.364Z,84.60
2023-01-29T07:44:13.255Z,84.50
2023-01-29T07:46:58.906Z,84.60
2023-01-29T07:49:44.399Z,84.70
2023-01-29T07:52:31.320Z,84.40
2023-01-29T07:55:17.484Z,84.50
2023-01-29T07:58:03.477Z,84.60
2023-01-29T08:00:58.375Z,84.60
2023-01-29T08:03:43.639Z,84.60
2023-01-29T08:06:34.768Z,84.60
2023-01-29T08:09:20.193Z,84.50
2023-01-29T08:12:05.918Z,84.80
2023-01-29T08:14:51.594Z,84.80
2023-01-29T08:17:52.545Z,84.60
2023-01-29T08:20:42.812Z,84.40
2023-01-29T08:23:31.151Z,84.20
2023-01-29T08:26:19.453Z,84.30
2023-01-29T08:29:04.732Z,84.40
2023-01-29T08:31:50.433Z,84.20
2023-01-29T08:34:36.061Z,84.10
2023-01-29T08:37:21.359Z,84.00
2023-01-29T08:40:09.422Z,84.10
2023-01-29T08:43:01.981Z,83.80
2023-01-29T08:45:48.941Z,83.80
2023-01-29T08:48:37.118Z,83.70
2023-01-29T08:51:22.872Z,83.40
2023-01-29T08:54:08.561Z,83.50
2023-01-29T08:56:55.241Z,83.10
2023-01-29T08:59:43.607Z,83.00
2023-01-29T09:02:29.015Z,82.80
2023-01-29T09:05:15.387Z,82.10
2023-01-29T09:08:01.175Z,82.20
2023-01-29T09:10:46.608Z,82.00
2023-01-29T09:13:34.936Z,82.10
2023-01-29T09:16:20.385Z,82.00
2023-01-29T09:19:05.624Z,82.00
2023-01-29T09:21:51.174Z,82.20
2023-01-29T09:24:37.032Z,82.20
2023-01-29T09:27:22.509Z,82.00
2023-01-29T09:30:11.619Z,82.30
2023-01-29T09:32:57.068Z,82.50
2023-01-29T09:35:47.645Z,82.00
2023-01-29T09:38:40.179Z,82.00
2023-01-29T09:41:44.567Z,82.00
2023-01-29T09:44:51.864Z,81.60
2023-01-29T09:47:37.420Z,81.80
2023-01-29T09:50:44.697Z,81.80
2023-01-29T09:53:42.800Z,82.50
2023-01-29T09:56:29.019Z,81.70
2023-01-29T09:59:17.937Z,81.70
2023-01-29T10:02:20.447Z,82.00
2023-01-29T10:05:19.960Z,82.10
2023-01-29T10:08:24.511Z,82.30
2023-01-29T10:11:42.289Z,82.20
2023-01-29T10:14:57.213Z,82.30
2023-01-29T10:18:18.444Z,82.40
2023-01-29T10:21:28.884Z,82.70
2023-01-29T10:24:23.891Z,82.50
2023-01-29T10:27:18.154Z,82.30
2023-01-29T10:30:10.428Z,82.10
2023-01-29T10:33:01.406Z,82.00
2023-01-29T10:35:55.800Z,82.60
2023-01-29T10:38:45.603Z,82.20
2023-01-29T10:41:49.263Z,82.50
2023-01-29T10:44:57.465Z,82.60
2023-01-29T10:47:52.579Z,82.30
2023-01-29T10:50:50.628Z,82.20
2023-01-29T10:54:02.497Z,82.40
2023-01-29T10:56:56.067Z,82.60
2023-01-29T10:59:57.417Z,82.50
2023-01-29T11:02:51.256Z,82.70
2023-01-29T11:05:44.571Z,83.10
2023-01-29T11:08:53.699Z,83.10
2023-01-29T11:11:50.267Z,83.10
2023-01-29T11:14:53.956Z,83.00
2023-01-29T11:17:39.193Z,83.10
2023-01-29T11:20:29.890Z,83.00
2023-01-29T11:23:34.099Z,82.80
2023-01-29T11:26:25.569Z,82.90
2023-01-29T11:29:38.902Z,83.00
2023-01-29T11:32:28.260Z,83.00
2023-01-29T11:35:16.933Z,83.10
2023-01-29T11:38:20.800Z,83.30
2023-01-29T11:41:14.976Z,83.00
2023-01-29T11:44:01.056Z,83.50
2023-01-29T11:46:46.810Z,83.30
2023-01-29T11:49:35.198Z,83.50
2023-01-29T11:52:23.857Z,83.20
2023-01-29T11:55:48.238Z,83.00
2023-01-29T11:58:36.459Z,83.00
2023-01-29T12:01:38.028Z,83.30
2023-01-29T12:04:31.101Z,83.30
2023-01-29T12:07:18.739Z,83.60
2023-01-29T12:10:40.996Z,83.40
2023-01-29T12:13:28.382Z,83.40
2023-01-29T12:16:25.756Z,83.50
2023-01-29T12:19:24.271Z,83.30
2023-01-29T12:22:17.726Z,83.50
2023-01-29T12:25:23.893Z,83.60
2023-01-29T12:28:41.219Z,83.40
2023-01-29T12:31:28.745Z,83.60
2023-01-29T12:34:43.732Z,83.10
2023-01-29T12:38:01.211Z,83.00
2023-01-29T12:41:02.699Z,82.70
2023-01-29T12:44:13.197Z,82.20
2023-01-29T12:47:01.134Z,81.60
2023-01-29T12:49:51.400Z,81.30
2023-01-29T12:52:41.076Z,81.50
2023-01-29T12:55:44.861Z,81.10
2023-01-29T12:58:41.760Z,80.90
2023-01-29T13:01:46.795Z,80.90
2023-01-29T13:04:43.171Z,81.10
2023-01-29T13:07:42.110Z,81.20
2023-01-29T13:10:39.495Z,81.40
2023-01-29T13:13:34.606Z,81.60
2023-01-29T13:16:27.144Z,81.40
2023-01-29T13:19:41.476Z,81.30
2023-01-29T13:22:29.488Z,81.10
2023-01-29T13:25:17.213Z,81.20
2023-01-29T13:28:02.993Z,81.30
2023-01-29T13:31:13.231Z,80.90
2023-01-29T13:34:11.391Z,80.80
2023-01-29T13:37:02.901Z,80.70
2023-01-29T13:39:52.131Z,80.70
2023-01-29T13:42:47.050Z,80.30
2023-01-29T13:45:35.316Z,80.70
2023-01-29T13:48:32.502Z,80.80
2023-01-29T13:51:22.419Z,80.60
2023-01-29T13:54:18.046Z,80.90
2023-01-29T13:57:03.583Z,81.00
2023-01-29T13:59:53.208Z,80.70
2023-01-29T14:02:41.193Z,80.90
2023-01-29T14:05:29.569Z,80.80
2023-01-29T14:08:15.144Z,81.00
2023-01-29T14:11:15.800Z,81.20
2023-01-29T14:14:01.980Z,81.70
2023-01-29T14:16:50.489Z,81.70
2023-01-29T14:19:36.260Z,81.70
2023-01-29T14:22:32.087Z,81.50
2023-01-29T14:25:21.321Z,81.40
2023-01-29T14:28:16.123Z,81.00
2023-01-29T14:31:02.742Z,81.10
2023-01-29T14:33:52.794Z,81.50
2023-01-29T14:36:43.320Z,81.60
2023-01-29T14:39:33.110Z,82.00
2023-01-29T14:42:34.573Z,81.90
2023-01-29T14:45:30.259Z,82.10
2023-01-29T14:48:38.870Z,82.80
2023-01-29T14:51:26.840Z,82.80
2023-01-29T14:54:27.922Z,82.60
2023-01-29T14:57:16.431Z,82.70
2023-01-29T15:00:14.915Z,82.70
2023-01-29T15:03:04.146Z,83.20
2023-01-29T15:05:54.070Z,84.00
2023-01-29T15:08:49.644Z,84.30
2023-01-29T15:11:47.947Z,84.40
2023-01-29T15:14:37.952Z,84.60
2023-01-29T15:17:37.760Z,84.70
2023-01-29T15:20:31.848Z,85.00
2023-01-29T15:23:26.135Z,85.10
2023-01-29T15:26:24.777Z,85.30
2023-01-29T15:29:23.370Z,85.40
2023-01-29T15:32:28.740Z,85.80
2023-01-29T15:35:37.687Z,86.10
2023-01-29T15:38:26.466Z,86.40
2023-01-29T15:41:20.394Z,86.80
2023-01-29T15:44:22.712Z,86.90
2023-01-29T15:47:10.333Z,87.60
2023-01-29T15:49:57.340Z,88.30
2023-01-29T15:52:43.123Z,88.90
2023-01-29T15:55:31.503Z,89.30
2023-01-29T15:58:27.830Z,89.60
2023-01-29T16:01:19.925Z,89.70
2023-01-29T16:04:06.125Z,89.90
2023-01-29T16:06:53.966Z,90.00
2023-01-29T16:09:43.130Z,90.00
2023-01-29T16:12:28.903Z,90.00
2023-01-29T16:15:29.770Z,89.60
2023-01-29T16:18:24.756Z,89.70
2023-01-29T16:21:16.364Z,89.40
2023-01-29T16:24:13.539Z,89.00
2023-01-29T16:27:02.215Z,88.60
2023-01-29T16:29:51.154Z,88.90
2023-01-29T16:32:36.895Z,88.70
2023-01-29T16:35:22.203Z,88.80
2023-01-29T16:38:28.945Z,88.90
2023-01-29T16:41:24.027Z,88.50
2023-01-29T16:44:21.504Z,88.10
2023-01-29T16:47:13.415Z,87.80
2023-01-29T16:50:20.385Z,88.20
2023-01-29T16:53:21.850Z,88.00
2023-01-29T16:56:13.951Z,87.90
2023-01-29T16:59:00.339Z,87.80
2023-01-29T17:01:45.736Z,88.20
2023-01-29T17:04:31.090Z,88.40
2023-01-29T17:07:21.242Z,88.50
2023-01-29T17:10:17.879Z,88.30
2023-01-29T17:13:11.611Z,88.50
2023-01-29T17:16:03.031Z,88.40
2023-01-29T17:18:49.564Z,88.10
2023-01-29T17:21:34.765Z,88.10
2023-01-29T17:24:25.567Z,88.10
2023-01-29T17:27:22.712Z,88.00
2023-01-29T17:30:15.429Z,88.10
2023-01-29T17:33:04.291Z,88.40
2023-01-29T17:35:52.818Z,88.50
2023-01-29T17:38:38.283Z,88.60
2023-01-29T17:41:27.654Z,88.60
2023-01-29T17:44:13.196Z,88.70
2023-01-29T17:47:05.570Z,88.70
2023-01-29T17:49:51.184Z,89.00
2023-01-29T17:52:40.647Z,88.90
2023-01-29T17:55:27.076Z,88.60
2023-01-29T17:58:31.009Z,88.30
2023-01-29T18:01:16.695Z,88.70
2023-01-29T18:04:02.228Z,88.70
2023-01-29T18:06:50.368Z,89.30
2023-01-29T18:09:36.027Z,89.20
2023-01-29T18:12:21.443Z,89.30
2023-01-29T18:15:07.220Z,89.50
2023-01-29T18:17:52.922Z,89.40
2023-01-29T18:20:39.019Z,89.90
2023-01-29T18:23:29.492Z,90.20
2023-01-29T18:26:17.816Z,90.10
2023-01-29T18:29:04.182Z,90.20
2023-01-29T18:31:49.748Z,90.20
2023-01-29T18:34:35.484Z,90.30
2023-01-29T18:37:21.010Z,90.30
2023-01-29T18:40:13.665Z,90.40
2023-01-29T18:43:00.875Z,90.60
2023-01-29T18:45:46.762Z,90.70
2023-01-29T18:48:32.380Z,90.60
2023-01-29T18:51:17.996Z,90.60
2023-01-29T18:54:04.255Z,90.70
2023-01-29T18:57:08.718Z,90.60
2023-01-29T18:59:55.276Z,90.60
2023-01-29T19:02:40.630Z,90.60
2023-01-29T19:05:25.930Z,90.70
2023-01-29T19:08:11.548Z,90.70
2023-01-29T19:10:58.059Z,90.70
2023-01-29T19:13:43.426Z,90.70
2023-01-29T19:16:30.960Z,90.90
2023-01-29T19:19:19.797Z,90.70
2023-01-29T19:22:07.941Z,90.70
2023-01-29T19:24:53.307Z,90.70
2023-01-29T19:27:38.835Z,90.90
2023-01-29T19:30:24.535Z,91.00
2023-01-29T19:33:10.398Z,90.90
2023-01-29T19:35:57.504Z,90.90
2023-01-29T19:38:43.385Z,91.00
2023-01-29T19:41:29.749Z,91.40
2023-01-29T19:44:15.221Z,91.20
2023-01-29T19:47:04.945Z,90.90
2023-01-29T19:49:50.429Z,90.90
2023-01-29T19:52:50.300Z,91.10
2023-01-29T19:55:36.564Z,90.90
2023-01-29T19:58:21.957Z,91.10
2023-01-29T20:01:20.229Z,91.30
2023-01-29T20:04:06.070Z,91.40
2023-01-29T20:06:51.357Z,91.60
2023-01-29T20:09:36.710Z,91.50
2023-01-29T20:12:22.525Z,91.30
2023-01-29T20:15:08.507Z,91.40
2023-01-29T20:17:53.996Z,91.60
2023-01-29T20:20:50.618Z,91.80
2023-01-29T20:23:38.640Z,91.90
2023-01-29T20:26:24.458Z,92.00
2023-01-29T20:29:09.777Z,92.00
2023-01-29T20:31:55.435Z,92.20
2023-01-29T20:34:41.352Z,92.30
2023-01-29T20:37:26.965Z,92.20
2023-01-29T20:40:12.630Z,92.70
2023-01-29T20:43:00.941Z,92.40
2023-01-29T20:45:46.382Z,92.40
2023-01-29T20:48:33.111Z,92.30
2023-01-29T20:51:19.105Z,92.50
2023-01-29T20:54:04.534Z,92.60
2023-01-29T20:56:50.191Z,92.50
2023-01-29T20:59:35.636Z,92.50
2023-01-29T21:02:21.733Z,92.50
2023-01-29T21:05:07.530Z,92.50
2023-01-29T21:07:52.790Z,92.60
2023-01-29T21:10:38.495Z,92.70
2023-01-29T21:13:45.847Z,92.80
2023-01-29T21:16:29.872Z,92.90
2023-01-29T21:19:15.665Z,93.10
2023-01-29T21:22:01.362Z,93.10
2023-01-29T21:24:47.019Z,93.20
2023-01-29T21:27:32.449Z,93.10
2023-01-29T21:30:18.668Z,93.20
2023-01-29T21:33:05.270Z,93.20
2023-01-29T21:35:58.445Z,93.30
2023-01-29T21:38:43.725Z,93.30
2023-01-29T21:41:50.633Z,93.20
2023-01-29T21:44:39.001Z,93.20
2023-01-29T21:47:24.576Z,93.10
2023-01-29T21:50:10.879Z,93.20
2023-01-29T21:52:56.415Z,93.20
2023-01-29T21:55:41.785Z,93.30
2023-01-29T21:58:27.410Z,93.30
2023-01-29T22:01:36.928Z,93.40
2023-01-29T22:04:18.881Z,93.40
2023-01-29T22:07:05.397Z,93.50
2023-01-29T22:10:00.517Z,93.60
2023-01-29T22:12:46.631Z,93.60
2023-01-29T22:15:32.504Z,93.80
2023-01-29T22:18:17.744Z,94.00
2023-01-29T22:21:03.415Z,94.20
2023-01-29T22:23:49.785Z,94.40
2023-01-29T22:26:35.840Z,94.60
2023-01-29T22:29:21.449Z,94.70
2023-01-29T22:32:07.093Z,94.70
2023-01-29T22:34:55.097Z,94.80
2023-01-29T22:37:40.701Z,94.90
2023-01-29T22:40:26.880Z,95.00
2023-01-29T22:43:12.113Z,94.90
2023-01-29T22:45:57.468Z,94.80
2023-01-29T22:48:42.967Z,94.90
2023-01-29T22:51:28.749Z,94.80
2023-01-29T22:54:15.817Z,94.80
2023-01-29T22:57:01.081Z,95.00
2023-01-29T22:59:46.818Z,95.00
2023-01-29T23:02:32.442Z,95.20
2023-01-29T23:05:18.295Z,95.30
2023-01-29T23:08:06.782Z,95.30
2023-01-29T23:10:52.208Z,95.30
2023-01-29T23:13:39.882Z,95.20
2023-01-29T23:16:27.927Z,95.30
2023-01-29T23:19:20.001Z,95.50
2023-01-29T23:22:05.473Z,95.60
2023-01-29T23:24:53.796Z,95.70
2023-01-29T23:27:39.380Z,95.70
2023-01-29T23:30:24.945Z,95.60
2023-01-29T23:33:12.194Z,95.90
2023-01-29T23:35:57.627Z,95.50
2023-01-29T23:38:43.346Z,95.30
2023-01-29T23:41:31.998Z,95.40
2023-01-29T23:44:17.820Z,95.30
2023-01-29T23:47:03.179Z,95.50
2023-01-29T23:49:48.660Z,95.10
2023-01-29T23:52:34.061Z,95.00
2023-01-29T23:55:19.665Z,95.00
2023-01-29T23:58:05.322Z,94.90
